Time;durP1;ratioP1;P1;durP2;ratioP2;P2;SDS_P1;SDS_P2;PMS_P1;PMS_P2;Temp;Humidity;BMP_temperature;BMP_pressure;BME280_temperature;BME280_humidity;BME280_pressure;Samples;Min_cycle;Max_cycle;Signal;HPM_P1;HPM_P2
2024/01/23 00:00:11;;;;;;;33.30;29.47;;;7.20;83.30;;;;;;5056116;28;20257;-87
2024/01/23 00:02:37;;;;;;;33.80;30.47;;;7.20;83.40;;;;;;5054813;28;20176;-88
2024/01/23 00:05:03;;;;;;;34.03;30.83;;;7.20;83.50;;;;;;5054791;28;20180;-87
2024/01/23 00:07:28;;;;;;;45.97;29.07;;;7.20;83.60;;;;;;5054699;28;20259;-87
2024/01/23 00:09:54;;;;;;;39.40;29.97;;;7.20;83.50;;;;;;5054900;28;20226;-88
2024/01/23 00:12:20;;;;;;;34.50;28.60;;;7.10;83.80;;;;;;5054734;28;20176;-87
2024/01/23 00:14:45;;;;;;;32.83;29.40;;;7.10;83.80;;;;;;5055864;28;20175;-87
2024/01/23 00:17:11;;;;;;;36.03;18.43;;;7.10;83.40;;;;;;5054413;28;20703;-87
2024/01/23 00:19:37;;;;;;;19.87;17.77;;;7.00;83.70;;;;;;5055713;28;20183;-87
2024/01/23 00:22:02;;;;;;;23.30;17.90;;;7.10;83.50;;;;;;5054588;28;20172;-86
2024/01/23 00:24:28;;;;;;;22.33;17.73;;;7.10;83.60;;;;;;5054682;28;20230;-87
2024/01/23 00:26:53;;;;;;;19.10;17.17;;;7.00;83.60;;;;;;5054160;28;20215;-87
2024/01/23 00:29:19;;;;;;;24.73;18.77;;;7.20;83.00;;;;;;5054413;28;20195;-87
2024/01/23 00:31:44;;;;;;;26.63;18.43;;;7.10;83.40;;;;;;5054222;28;20199;-87
2024/01/23 00:34:11;;;;;;;29.73;20.17;;;7.10;83.40;;;;;;5055823;28;20213;-87
2024/01/23 00:36:36;;;;;;;17.57;15.80;;;7.00;83.80;;;;;;5055499;28;20688;-88
2024/01/23 00:39:02;;;;;;;20.17;17.23;;;6.50;85.40;;;;;;5054372;28;20269;-87
2024/01/23 00:41:28;;;;;;;22.33;16.63;;;6.00;86.70;;;;;;5055417;28;20172;-87
2024/01/23 00:43:53;;;;;;;26.13;16.50;;;5.90;87.30;;;;;;5055357;28;20218;-87
2024/01/23 00:46:19;;;;;;;19.30;14.90;;;5.90;87.70;;;;;;5053795;28;20204;-87
2024/01/23 00:48:44;;;;;;;31.97;16.57;;;5.90;87.90;;;;;;5055058;28;20178;-87
2024/01/23 00:51:11;;;;;;;20.90;16.13;;;5.90;88.10;;;;;;5055197;28;20226;-87
2024/01/23 00:53:37;;;;;;;22.10;15.23;;;5.90;88.10;;;;;;5053920;28;20207;-87
2024/01/23 00:56:02;;;;;;;17.97;15.63;;;5.90;87.60;;;;;;5053705;28;20195;-87
2024/01/23 00:58:28;;;;;;;22.50;14.87;;;6.00;86.80;;;;;;5053770;28;20747;-87
2024/01/23 01:00:53;;;;;;;22.13;16.97;;;6.00;86.50;;;;;;5054863;28;20179;-87
2024/01/23 01:03:19;;;;;;;28.83;17.10;;;5.90;86.10;;;;;;5054834;28;20542;-87
2024/01/23 01:05:45;;;;;;;19.73;15.70;;;5.90;86.00;;;;;;5053681;28;20192;-87
2024/01/23 01:08:11;;;;;;;22.60;16.00;;;5.80;86.20;;;;;;5053558;28;20249;-87
2024/01/23 01:10:37;;;;;;;24.70;15.43;;;5.80;86.10;;;;;;5054774;28;20172;-87
2024/01/23 01:13:03;;;;;;;24.27;15.40;;;5.80;86.20;;;;;;5053497;28;20184;-87
2024/01/23 01:15:29;;;;;;;20.30;13.95;;;5.70;86.50;;;;;;5054886;28;20194;-87
2024/01/23 01:17:54;;;;;;;23.67;15.07;;;5.80;86.90;;;;;;5054871;28;20211;-87
2024/01/23 01:20:20;;;;;;;22.20;13.87;;;5.80;87.10;;;;;;5053362;28;20195;-87
2024/01/23 01:22:45;;;;;;;17.17;13.67;;;5.80;87.30;;;;;;5053317;28;20259;-87
2024/01/23 01:25:11;;;;;;;20.27;13.17;;;5.90;87.30;;;;;;5053626;28;20282;-87
2024/01/23 01:27:36;;;;;;;32.20;14.23;;;5.90;87.10;;;;;;5053194;28;20239;-87
2024/01/23 01:30:06;;;;;;;26.20;23.33;;;6.00;87.20;;;;;;5053311;28;20172;-87
2024/01/23 01:32:31;;;;;;;27.40;22.77;;;6.00;87.40;;;;;;5054413;28;20176;-87
2024/01/23 01:34:57;;;;;;;24.80;22.43;;;6.10;87.00;;;;;;5053107;28;20176;-87
2024/01/23 01:37:23;;;;;;;24.73;22.57;;;6.20;86.60;;;;;;5054250;28;20590;-87
2024/01/23 01:39:48;;;;;;;31.40;24.87;;;6.30;86.50;;;;;;5053082;28;20648;-87
2024/01/23 01:42:14;;;;;;;25.87;23.37;;;6.30;86.60;;;;;;5052941;28;20210;-87
2024/01/23 01:44:39;;;;;;;28.47;24.83;;;6.30;86.40;;;;;;5054100;28;20176;-87
2024/01/23 01:47:05;;;;;;;42.13;26.63;;;6.40;85.90;;;;;;5052679;28;20265;-87
2024/01/23 01:49:31;;;;;;;26.47;23.70;;;6.30;86.50;;;;;;5054016;28;20230;-87
2024/01/23 01:51:57;;;;;;;31.50;25.07;;;6.30;86.30;;;;;;5052783;28;20179;-87
2024/01/23 01:54:23;;;;;;;30.33;24.50;;;6.30;86.50;;;;;;5054019;28;20175;-87
2024/01/23 01:56:53;;;;;;;30.03;24.53;;;6.30;86.50;;;;;;5052503;28;20199;-87
2024/01/23 01:59:20;;;;;;;42.67;24.73;;;6.20;86.90;;;;;;5052863;28;20180;-87
2024/01/23 02:01:46;;;;;;;25.17;22.83;;;6.20;86.70;;;;;;5052788;28;20184;-87
2024/01/23 02:04:11;;;;;;;27.37;24.40;;;6.20;86.90;;;;;;5052630;28;20192;-87
2024/01/23 02:06:37;;;;;;;25.30;22.83;;;6.20;86.80;;;;;;5053399;28;20208;-87
2024/01/23 02:09:03;;;;;;;28.73;23.00;;;6.10;87.10;;;;;;5053318;28;20503;-87
2024/01/23 02:11:29;;;;;;;25.37;23.00;;;6.10;87.10;;;;;;5053137;28;20227;-87
2024/01/23 02:13:55;;;;;;;33.33;22.60;;;6.00;87.10;;;;;;5053510;28;20222;-87
2024/01/23 02:16:21;;;;;;;25.00;20.93;;;6.00;87.40;;;;;;5053490;28;20204;-87
2024/01/23 02:18:47;;;;;;;25.10;22.70;;;6.00;87.40;;;;;;5053775;28;20635;-87
2024/01/23 02:21:14;;;;;;;26.97;24.17;;;6.00;87.00;;;;;;5053760;28;20232;-87
2024/01/23 02:23:41;;;;;;;29.27;23.93;;;6.00;87.00;;;;;;5053513;28;20211;-87
2024/01/23 02:26:06;;;;;;;26.87;24.00;;;5.90;87.30;;;;;;5053287;28;20211;-87
2024/01/23 02:28:32;;;;;;;21.63;13.60;;;5.90;87.40;;;;;;5052184;28;20176;-87
2024/01/23 02:30:57;;;;;;;16.57;13.43;;;5.90;87.30;;;;;;5052256;28;20215;-87
2024/01/23 02:33:23;;;;;;;18.77;14.10;;;5.90;87.20;;;;;;5053416;28;20259;-87
2024/01/23 02:35:48;;;;;;;21.90;13.50;;;5.90;87.30;;;;;;5053093;28;20187;-87
2024/01/23 02:38:14;;;;;;;26.07;14.70;;;5.90;87.30;;;;;;5052123;28;20184;-87
2024/01/23 02:40:39;;;;;;;29.63;15.00;;;5.80;87.50;;;;;;5053525;28;20180;-87
2024/01/23 02:43:05;;;;;;;26.73;15.97;;;5.80;87.40;;;;;;5053601;28;20597;-87
2024/01/23 02:45:30;;;;;;;23.57;14.50;;;5.80;87.50;;;;;;5053601;28;20715;-87
2024/01/23 02:47:56;;;;;;;19.60;14.10;;;5.80;87.50;;;;;;5053145;28;20688;-87
2024/01/23 02:50:22;;;;;;;27.90;15.73;;;5.80;87.30;;;;;;5051956;28;20183;-87
2024/01/23 02:52:49;;;;;;;32.60;14.77;;;5.80;87.30;;;;;;5052020;28;20651;-87
2024/01/23 02:55:14;;;;;;;32.93;16.13;;;5.80;87.10;;;;;;5053367;28;20242;-87
2024/01/23 02:57:40;;;;;;;23.80;14.23;;;5.80;87.10;;;;;;5053042;28;20593;-87
2024/01/23 03:00:07;;;;;;;22.93;15.03;;;5.90;86.90;;;;;;5052732;28;20218;-87
2024/01/23 03:02:33;;;;;;;23.70;14.27;;;5.90;86.70;;;;;;5053739;28;20171;-87
2024/01/23 03:04:59;;;;;;;23.67;14.53;;;5.80;87.10;;;;;;5051704;28;20176;-87
2024/01/23 03:07:24;;;;;;;24.77;14.87;;;5.80;86.90;;;;;;5051958;28;20212;-87
2024/01/23 03:09:50;;;;;;;19.20;14.93;;;5.90;86.70;;;;;;5051867;28;20172;-87
2024/01/23 03:12:16;;;;;;;25.23;14.97;;;6.00;86.50;;;;;;5052008;28;20550;-87
2024/01/23 03:14:43;;;;;;;17.00;13.37;;;5.90;86.70;;;;;;5052989;28;20678;-87
2024/01/23 03:17:10;;;;;;;20.63;14.47;;;6.00;86.40;;;;;;5053246;28;20188;-87
2024/01/23 03:19:35;;;;;;;36.63;13.40;;;6.10;86.20;;;;;;5052102;28;20176;-87
2024/01/23 03:22:01;;;;;;;31.13;17.87;;;6.00;86.30;;;;;;5053394;28;20606;-87
2024/01/23 03:24:27;;;;;;;21.50;15.50;;;6.00;86.30;;;;;;5055884;28;20187;-87
2024/01/23 03:26:52;;;;;;;19.13;13.87;;;6.00;86.30;;;;;;5056879;28;20559;-87
2024/01/23 03:29:18;;;;;;;34.43;17.10;;;6.20;85.70;;;;;;5056824;28;20184;-87
2024/01/23 03:31:44;;;;;;;26.30;16.43;;;6.20;85.50;;;;;;5055746;28;20183;-87
2024/01/23 03:34:09;;;;;;;29.20;16.60;;;6.30;85.00;;;;;;5055316;28;20195;-87
2024/01/23 03:36:35;;;;;;;16.47;14.43;;;6.20;85.10;;;;;;5055334;28;20299;-87
2024/01/23 03:39:00;;;;;;;37.10;17.63;;;6.20;85.10;;;;;;5055654;28;20549;-87
2024/01/23 03:41:26;;;;;;;24.57;16.30;;;6.20;85.40;;;;;;5055522;28;20549;-87
2024/01/23 03:43:51;;;;;;;42.43;16.53;;;6.20;85.30;;;;;;5056651;28;20184;-87
2024/01/23 03:46:17;;;;;;;20.57;16.60;;;6.30;84.80;;;;;;5055060;28;20216;-87
2024/01/23 03:48:42;;;;;;;18.33;15.70;;;6.20;84.90;;;;;;5056320;28;20168;-87
2024/01/23 03:51:08;;;;;;;28.77;16.37;;;6.30;84.70;;;;;;5055359;28;20258;-87
2024/01/23 03:53:33;;;;;;;27.87;17.60;;;6.20;84.90;;;;;;5056229;28;20173;-87
2024/01/23 03:55:59;;;;;;;22.47;16.23;;;6.20;85.30;;;;;;5056130;28;20195;-87
2024/01/23 03:58:24;;;;;;;31.17;28.43;;;6.20;85.00;;;;;;5056125;28;20180;-87
2024/01/23 04:00:50;;;;;;;31.60;28.33;;;6.20;84.90;;;;;;5054821;28;20192;-87
2024/01/23 04:03:15;;;;;;;42.40;28.67;;;6.30;84.70;;;;;;5056073;28;20546;-87
2024/01/23 04:05:41;;;;;;;31.83;28.43;;;6.20;85.20;;;;;;5055885;28;20200;-87
2024/01/23 04:08:06;;;;;;;34.67;29.33;;;6.20;85.10;;;;;;5055896;28;20251;-87
2024/01/23 04:10:32;;;;;;;38.63;29.87;;;6.20;85.00;;;;;;5055941;28;20571;-87
2024/01/23 04:12:57;;;;;;;40.13;30.77;;;6.20;84.90;;;;;;5055944;28;20636;-87
2024/01/23 04:15:23;;;;;;;38.83;27.90;;;6.20;84.90;;;;;;5056210;28;20247;-87
2024/01/23 04:17:49;;;;;;;34.87;27.87;;;6.10;85.20;;;;;;5055751;28;20700;-87
2024/01/23 04:20:14;;;;;;;30.30;27.27;;;6.20;84.90;;;;;;5054698;28;20675;-87
2024/01/23 04:22:40;;;;;;;30.23;27.63;;;6.20;85.00;;;;;;5054491;28;20545;-87
2024/01/23 04:25:06;;;;;;;34.70;29.57;;;6.20;85.00;;;;;;5055495;28;20165;-87
2024/01/23 04:27:31;;;;;;;37.27;31.73;;;6.20;85.10;;;;;;5055811;28;20688;-87
2024/01/23 04:29:57;;;;;;;30.33;27.40;;;6.30;84.80;;;;;;5054328;28;20549;-87
2024/01/23 04:32:22;;;;;;;30.30;27.57;;;6.30;84.70;;;;;;5055578;28;20168;-86
2024/01/23 04:34:48;;;;;;;37.23;29.43;;;6.20;85.00;;;;;;5053849;28;20218;-87
2024/01/23 04:37:14;;;;;;;33.57;30.03;;;6.30;85.00;;;;;;5054014;28;20687;-87
2024/01/23 04:39:39;;;;;;;30.43;27.73;;;6.30;84.80;;;;;;5054457;28;20176;-87
2024/01/23 04:42:05;;;;;;;31.57;28.27;;;6.30;84.90;;;;;;5055349;28;20172;-87
2024/01/23 04:44:30;;;;;;;45.70;29.80;;;6.30;84.90;;;;;;5055250;28;20176;-87
2024/01/23 04:46:56;;;;;;;39.55;29.40;;;6.30;84.90;;;;;;5055092;28;20219;-87
2024/01/23 04:49:21;;;;;;;41.80;29.07;;;6.30;84.90;;;;;;5055274;28;20172;-87
2024/01/23 04:51:47;;;;;;;43.53;28.67;;;6.30;85.10;;;;;;5053962;28;20175;-87
2024/01/23 04:54:12;;;;;;;41.37;30.23;;;6.20;85.30;;;;;;5053904;28;20652;-87
2024/01/23 04:56:38;;;;;;;34.23;27.73;;;6.30;85.10;;;;;;5055493;28;20207;-87
2024/01/23 04:59:04;;;;;;;35.00;27.83;;;6.20;85.40;;;;;;5055185;28;20180;-87
2024/01/23 05:01:30;;;;;;;43.37;29.17;;;6.20;85.50;;;;;;5054687;28;20178;-87
2024/01/23 05:03:55;;;;;;;47.90;32.00;;;6.30;85.30;;;;;;5053750;28;20180;-87
2024/01/23 05:06:21;;;;;;;37.23;29.60;;;6.30;84.80;;;;;;5053678;28;20748;-87
2024/01/23 05:08:46;;;;;;;32.73;28.03;;;6.30;85.10;;;;;;5053781;28;20175;-87
2024/01/23 05:11:12;;;;;;;41.00;29.73;;;6.30;85.10;;;;;;5053731;28;20172;-86
2024/01/23 05:13:41;;;;;;;50.53;29.13;;;6.30;85.20;;;;;;5054825;28;20640;-87
2024/01/23 05:16:07;;;;;;;31.77;28.27;;;6.30;84.90;;;;;;5054922;28;20196;-87
2024/01/23 05:18:32;;;;;;;29.73;26.83;;;6.40;84.90;;;;;;5053693;28;20245;-87
2024/01/23 05:20:58;;;;;;;35.47;26.07;;;6.30;85.40;;;;;;5054336;28;20176;-87
2024/01/23 05:23:25;;;;;;;25.00;15.50;;;6.20;86.50;;;;;;5053821;28;20635;-87
2024/01/23 05:25:51;;;;;;;27.53;15.27;;;6.20;86.70;;;;;;5053230;28;20199;-87
2024/01/23 05:28:17;;;;;;;38.83;15.47;;;6.30;86.50;;;;;;5053283;28;20180;-87
2024/01/23 05:30:42;;;;;;;39.10;16.57;;;6.30;86.60;;;;;;5053784;28;20267;-87
2024/01/23 05:33:08;;;;;;;33.37;15.73;;;6.30;86.80;;;;;;5054566;28;20168;-87
2024/01/23 05:35:34;;;;;;;33.13;17.07;;;6.30;86.60;;;;;;5054338;28;20183;-87
2024/01/23 05:37:59;;;;;;;48.97;18.33;;;6.50;85.90;;;;;;5053530;28;20680;-87
2024/01/23 05:40:25;;;;;;;24.03;15.50;;;6.40;86.00;;;;;;5054045;28;20199;-87
2024/01/23 05:42:50;;;;;;;40.83;20.13;;;6.40;85.90;;;;;;5053004;28;20671;-87
2024/01/23 05:45:16;;;;;;;44.23;17.83;;;6.40;85.90;;;;;;5052725;28;20180;-87
2024/01/23 05:47:41;;;;;;;36.43;18.20;;;6.40;85.80;;;;;;5053717;28;20262;-87
2024/01/23 05:50:08;;;;;;;34.30;17.70;;;6.40;86.20;;;;;;5052901;28;20176;-87
2024/01/23 05:52:33;;;;;;;40.95;19.50;;;6.50;86.10;;;;;;5054337;28;20168;-87
2024/01/23 05:54:59;;;;;;;37.93;19.30;;;6.50;86.10;;;;;;5053967;28;20172;-87
2024/01/23 05:57:25;;;;;;;49.23;19.03;;;6.50;86.20;;;;;;5053905;28;20196;-87
2024/01/23 05:59:51;;;;;;;43.47;17.93;;;6.50;86.00;;;;;;5054011;28;20168;-87
2024/01/23 06:02:16;;;;;;;40.90;17.03;;;6.60;85.60;;;;;;5053898;28;20238;-87
2024/01/23 06:04:42;;;;;;;43.40;18.30;;;6.60;85.90;;;;;;5052786;28;20547;-87
2024/01/23 06:07:07;;;;;;;45.73;18.43;;;6.50;85.90;;;;;;5054202;28;20200;-88
2024/01/23 06:09:33;;;;;;;37.73;17.37;;;6.60;86.00;;;;;;5054767;28;20164;-87
2024/01/23 06:11:59;;;;;;;29.57;17.47;;;6.60;85.70;;;;;;5053095;28;20626;-87
2024/01/23 06:14:24;;;;;;;43.90;18.40;;;6.70;85.40;;;;;;5052847;28;20183;-87
2024/01/23 06:16:50;;;;;;;34.80;18.13;;;6.70;85.40;;;;;;5052762;28;20199;-87
2024/01/23 06:19:17;;;;;;;45.63;19.63;;;6.70;85.50;;;;;;5052863;28;20183;-87
2024/01/23 06:21:42;;;;;;;49.13;19.93;;;6.70;85.50;;;;;;5052618;28;20172;-87
2024/01/23 06:24:08;;;;;;;46.13;18.17;;;6.60;85.80;;;;;;5054318;28;20180;-87
2024/01/23 06:26:33;;;;;;;43.83;20.07;;;6.70;85.60;;;;;;5052756;28;20234;-88
2024/01/23 06:28:59;;;;;;;44.87;20.67;;;6.80;85.00;;;;;;5053692;28;20180;-87
2024/01/23 06:31:27;;;;;;;43.20;18.83;;;6.90;84.60;;;;;;5054097;28;20172;-87
2024/01/23 06:33:53;;;;;;;38.77;18.87;;;6.80;84.70;;;;;;5053809;28;20179;-87
2024/01/23 06:36:19;;;;;;;37.83;19.03;;;6.80;85.10;;;;;;5052416;28;20584;-87
2024/01/23 06:38:45;;;;;;;38.03;19.33;;;6.80;85.60;;;;;;5053802;28;20180;-87
2024/01/23 06:41:10;;;;;;;44.43;19.87;;;6.80;85.50;;;;;;5053768;28;20526;-87
2024/01/23 06:43:36;;;;;;;42.17;19.60;;;6.80;85.40;;;;;;5054202;28;20306;-87
2024/01/23 06:46:03;;;;;;;46.13;18.83;;;6.90;85.10;;;;;;5053937;28;20622;-87
2024/01/23 06:48:30;;;;;;;53.63;21.07;;;6.90;85.30;;;;;;5053778;28;20171;-87
2024/01/23 06:50:56;;;;;;;53.23;21.23;;;6.80;85.60;;;;;;5053189;28;20176;-88
2024/01/23 06:53:21;;;;;;;55.83;22.03;;;6.80;85.90;;;;;;5052494;28;20718;-87
2024/01/23 06:55:48;;;;;;;34.37;19.93;;;6.80;86.00;;;;;;5052432;28;20176;-87
2024/01/23 06:58:13;;;;;;;51.67;20.40;;;6.80;86.10;;;;;;5052280;28;20192;-88
2024/01/23 07:00:40;;;;;;;58.23;22.40;;;6.80;86.20;;;;;;5053811;28;20655;-87
2024/01/23 07:03:06;;;;;;;38.90;18.13;;;6.80;86.30;;;;;;5052450;28;20180;-87
2024/01/23 07:05:32;;;;;;;56.10;19.03;;;6.80;86.40;;;;;;5052167;28;20212;-87
2024/01/23 07:07:57;;;;;;;43.90;19.93;;;6.80;86.40;;;;;;5053805;28;20621;-87
2024/01/23 07:10:23;;;;;;;52.77;19.13;;;6.80;86.40;;;;;;5052268;28;20172;-87
2024/01/23 07:12:48;;;;;;;37.80;17.43;;;6.70;86.60;;;;;;5052038;28;20237;-87
2024/01/23 07:15:14;;;;;;;49.70;18.27;;;6.70;86.70;;;;;;5053659;28;20618;-87
2024/01/23 07:17:39;;;;;;;44.00;18.50;;;6.70;86.90;;;;;;5052194;28;20192;-87
2024/01/23 07:20:09;;;;;;;52.60;19.30;;;6.70;86.90;;;;;;5053636;28;20259;-87
2024/01/23 07:22:34;;;;;;;47.30;19.07;;;6.80;86.90;;;;;;5052355;28;20176;-87
2024/01/23 07:25:03;;;;;;;49.67;20.97;;;6.80;86.70;;;;;;5053383;28;20176;-87
2024/01/23 07:27:29;;;;;;;37.93;17.70;;;6.80;86.80;;;;;;5053485;28;20234;-87
2024/01/23 07:29:55;;;;;;;46.17;18.80;;;6.70;87.00;;;;;;5053295;28;20297;-87
2024/01/23 07:32:20;;;;;;;44.60;17.37;;;6.80;87.00;;;;;;5053721;28;20258;-87
2024/01/23 07:34:46;;;;;;;59.13;19.27;;;6.70;87.00;;;;;;5053482;28;20168;-88
2024/01/23 07:37:11;;;;;;;55.67;19.30;;;6.70;87.10;;;;;;5053302;28;20211;-87
2024/01/23 07:39:37;;;;;;;53.67;22.07;;;6.70;87.20;;;;;;5052896;28;20175;-90
2024/01/23 07:42:03;;;;;;;61.87;19.90;;;6.70;87.30;;;;;;5051701;28;20188;-88
2024/01/23 07:44:29;;;;;;;49.57;27.57;;;6.70;87.50;;;;;;5053265;28;20180;-88
2024/01/23 07:46:54;;;;;;;62.17;29.13;;;6.70;87.50;;;;;;5053589;28;20216;-88
2024/01/23 07:49:20;;;;;;;60.90;26.10;;;6.70;87.60;;;;;;5053465;28;20659;-88
2024/01/23 07:51:47;;;;;;;55.60;24.53;;;6.60;87.70;;;;;;5051600;28;20204;-87
2024/01/23 07:54:12;;;;;;;43.70;24.90;;;6.70;87.60;;;;;;5051911;28;20184;-88
2024/01/23 07:56:38;;;;;;;58.93;28.33;;;6.70;87.70;;;;;;5052066;28;20549;-87
2024/01/23 07:59:03;;;;;;;64.67;28.60;;;6.60;87.80;;;;;;5052111;28;20184;-87
2024/01/23 08:01:29;;;;;;;59.27;26.10;;;6.70;87.40;;;;;;5052110;28;20773;-87
2024/01/23 08:03:54;;;;;;;54.00;25.83;;;6.70;87.40;;;;;;5052051;28;20270;-87
2024/01/23 08:06:20;;;;;;;60.70;29.00;;;6.80;87.30;;;;;;5051543;28;20212;-87
2024/01/23 08:08:45;;;;;;;57.80;28.40;;;6.80;87.30;;;;;;5052970;28;20176;-88
2024/01/23 08:11:12;;;;;;;57.07;26.77;;;6.80;87.20;;;;;;5055296;28;20176;-87
2024/01/23 08:13:37;;;;;;;59.17;27.90;;;6.80;87.10;;;;;;5055418;28;20176;-87
2024/01/23 08:16:08;;;;;;;46.77;26.10;;;6.80;87.10;;;;;;5055199;28;20204;-87
2024/01/23 08:18:33;;;;;;;62.63;27.70;;;6.80;87.10;;;;;;5055867;28;20547;-87
2024/01/23 08:20:59;;;;;;;64.87;29.10;;;6.80;87.10;;;;;;5057469;28;20180;-86
2024/01/23 08:23:25;;;;;;;62.87;29.83;;;6.80;87.00;;;;;;5056947;28;20179;-87
2024/01/23 08:25:51;;;;;;;56.43;28.97;;;6.80;86.90;;;;;;5054875;28;20206;-87
2024/01/23 08:28:17;;;;;;;52.73;29.90;;;6.80;87.10;;;;;;5056005;28;20180;-87
2024/01/23 08:30:42;;;;;;;46.70;28.67;;;6.80;87.00;;;;;;5055049;28;20182;-88
2024/01/23 08:33:08;;;;;;;61.83;29.90;;;6.80;86.90;;;;;;5055568;28;20676;-88
2024/01/23 08:35:34;;;;;;;59.70;30.87;;;6.70;87.00;;;;;;5054939;28;20208;-89
2024/01/23 08:37:59;;;;;;;54.00;28.97;;;6.70;87.10;;;;;;5055565;28;20194;-87
2024/01/23 08:40:25;;;;;;;63.10;30.30;;;6.70;87.10;;;;;;5056940;28;20172;-87
2024/01/23 08:42:50;;;;;;;56.93;28.27;;;6.70;87.20;;;;;;5055343;28;20697;-88
2024/01/23 08:45:16;;;;;;;57.03;29.67;;;6.70;87.20;;;;;;5056801;28;20168;-88
2024/01/23 08:47:41;;;;;;;63.07;29.43;;;6.70;87.10;;;;;;5055060;28;20200;-87
2024/01/23 08:50:07;;;;;;;55.07;29.77;;;6.70;87.30;;;;;;5055317;28;20176;-87
2024/01/23 08:52:33;;;;;;;63.97;29.37;;;6.80;87.20;;;;;;5054807;28;20258;-88
2024/01/23 08:54:59;;;;;;;49.00;28.57;;;6.80;87.20;;;;;;5055145;28;20176;-88
2024/01/23 08:57:24;;;;;;;59.07;26.73;;;6.80;87.00;;;;;;5055717;28;20204;-87
2024/01/23 08:59:50;;;;;;;59.43;27.13;;;6.80;87.10;;;;;;5056046;28;20214;-88
2024/01/23 09:02:15;;;;;;;61.00;27.33;;;6.80;87.10;;;;;;5054861;28;20176;-87
2024/01/23 09:04:41;;;;;;;60.50;28.70;;;6.80;87.10;;;;;;5055306;28;20187;-88
2024/01/23 09:07:06;;;;;;;56.13;27.23;;;6.80;87.30;;;;;;5056253;28;20632;-87
2024/01/23 09:09:32;;;;;;;51.30;20.33;;;6.80;87.10;;;;;;5056136;28;20176;-87
2024/01/23 09:11:57;;;;;;;52.13;18.70;;;6.90;86.90;;;;;;5054946;28;20175;-87
2024/01/23 09:14:23;;;;;;;;;;;6.80;87.10;;;;;;5054676;28;20176;-87
2024/01/23 09:16:49;;;;;;;52.40;19.87;;;6.80;87.00;;;;;;5055892;28;20218;-87
2024/01/23 09:19:15;;;;;;;60.13;20.17;;;6.90;87.10;;;;;;5054802;28;20172;-87
2024/01/23 09:21:40;;;;;;;47.17;18.17;;;6.80;87.20;;;;;;5052926;28;20553;-89
2024/01/23 09:24:06;;;;;;;50.70;21.23;;;6.90;87.30;;;;;;5055856;28;20188;-90
2024/01/23 09:26:32;;;;;;;54.83;19.30;;;6.90;87.00;;;;;;5055957;28;20261;-88
2024/01/23 09:28:57;;;;;;;59.43;20.43;;;6.80;87.10;;;;;;5053714;28;20172;-88
2024/01/23 09:31:23;;;;;;;60.47;20.80;;;6.90;87.10;;;;;;5053610;28;20183;-88
2024/01/23 09:33:48;;;;;;;45.90;19.10;;;6.90;87.10;;;;;;5054681;28;20187;-87
2024/01/23 09:36:14;;;;;;;49.10;19.30;;;7.00;87.00;;;;;;5053191;28;20211;-87
2024/01/23 09:38:40;;;;;;;47.27;18.73;;;6.90;86.90;;;;;;5053199;28;20713;-87
2024/01/23 09:41:11;;;;;;;54.23;19.20;;;7.00;86.70;;;;;;5053261;28;20187;-87
2024/01/23 09:43:41;;;;;;;50.17;19.73;;;7.00;87.10;;;;;;5053213;28;20624;-87
2024/01/23 09:46:11;;;;;;;55.20;19.67;;;6.90;87.00;;;;;;5053644;28;20235;-87
2024/01/23 09:48:38;;;;;;;61.00;20.83;;;6.90;87.20;;;;;;5053510;28;20207;-88
2024/01/23 09:51:11;;;;;;;52.57;20.63;;;6.90;87.10;;;;;;5054381;28;20184;-88
2024/01/23 09:53:39;;;;;;;64.00;21.47;;;6.80;87.30;;;;;;5055971;28;20156;-87
2024/01/23 09:56:06;;;;;;;68.27;21.67;;;6.90;87.50;;;;;;5052884;28;20204;-87
2024/01/23 09:58:32;;;;;;;62.40;21.47;;;7.00;87.20;;;;;;5052793;28;20183;-87
2024/01/23 10:00:59;;;;;;;61.77;22.03;;;7.00;87.20;;;;;;5052870;28;20187;-87
2024/01/23 10:03:26;;;;;;;56.40;20.73;;;7.00;87.20;;;;;;5054246;28;20202;-87
2024/01/23 10:05:52;;;;;;;66.53;21.63;;;7.00;87.20;;;;;;5053740;28;20200;-86
2024/01/23 10:08:18;;;;;;;54.13;20.60;;;7.00;87.20;;;;;;5053830;28;20176;-87
2024/01/23 10:10:44;;;;;;;56.63;19.70;;;7.10;87.20;;;;;;5052551;28;20176;-88
2024/01/23 10:13:15;;;;;;;54.40;22.53;;;7.20;87.20;;;;;;5054023;28;20658;-88
2024/01/23 10:15:41;;;;;;;44.73;19.33;;;7.10;86.90;;;;;;5052439;28;20682;-87
2024/01/23 10:18:06;;;;;;;47.17;18.73;;;7.10;86.90;;;;;;5052436;28;20175;-87
2024/01/23 10:20:35;;;;;;;49.00;19.73;;;7.10;87.20;;;;;;5052378;28;20187;-87
2024/01/23 10:23:01;;;;;;;65.03;22.07;;;7.10;87.00;;;;;;5052364;28;20270;-87
2024/01/23 10:25:28;;;;;;;51.87;20.70;;;7.10;87.00;;;;;;5052125;28;20605;-87
2024/01/23 10:27:56;;;;;;;49.87;20.83;;;7.00;87.20;;;;;;5052213;28;20192;-87
2024/01/23 10:30:21;;;;;;;50.63;20.20;;;7.10;87.10;;;;;;5053369;28;20175;-87
2024/01/23 10:32:47;;;;;;;50.40;20.00;;;7.10;87.10;;;;;;5051746;28;20540;-87
2024/01/23 10:35:13;;;;;;;60.87;20.97;;;7.10;87.20;;;;;;5052944;28;20209;-87
2024/01/23 10:37:40;;;;;;;47.67;21.27;;;7.10;86.90;;;;;;5052007;28;20315;-87
2024/01/23 10:40:12;;;;;;;50.77;21.63;;;7.10;86.90;;;;;;5052179;28;20705;-88
2024/01/23 10:42:38;;;;;;;60.07;21.77;;;7.20;87.00;;;;;;5052227;28;20175;-87
2024/01/23 10:45:06;;;;;;;52.93;23.63;;;7.20;86.90;;;;;;5052007;28;20266;-87
2024/01/23 10:47:31;;;;;;;51.27;20.47;;;7.30;86.70;;;;;;5051920;28;20208;-87
2024/01/23 10:49:57;;;;;;;56.80;20.83;;;7.20;86.70;;;;;;5053139;28;20180;-87
2024/01/23 10:52:27;;;;;;;48.13;20.57;;;7.20;86.70;;;;;;5052031;28;20175;-87
2024/01/23 10:54:56;;;;;;;54.63;22.17;;;7.20;86.60;;;;;;5053138;28;20175;-87
2024/01/23 10:57:25;;;;;;;67.53;22.17;;;7.20;86.70;;;;;;5052146;28;20192;-87
2024/01/23 10:59:51;;;;;;;64.80;21.50;;;7.30;86.80;;;;;;5053495;28;20187;-87
2024/01/23 11:02:37;;;;;;;57.10;21.07;;;7.30;86.60;;;;;;5051893;28;20180;-87
2024/01/23 11:05:04;;;;;;;63.53;21.90;;;7.30;86.90;;;;;;5051839;28;20202;-87
2024/01/23 11:07:37;;;;;;;57.17;23.13;;;7.30;87.00;;;;;;5051710;28;20211;-87
2024/01/23 11:10:22;;;;;;;52.70;20.63;;;7.20;87.10;;;;;;5051898;28;20556;-87
2024/01/23 11:13:03;;;;;;;51.33;22.87;;;7.20;87.10;;;;;;5051912;28;20259;-87
2024/01/23 11:15:29;;;;;;;53.23;21.87;;;7.30;87.20;;;;;;5052004;28;20526;-87
2024/01/23 11:18:19;;;;;;;60.33;20.63;;;7.30;87.10;;;;;;5051550;28;20195;-87
2024/01/23 11:21:03;;;;;;;48.93;20.83;;;7.30;86.90;;;;;;5051488;28;20706;-87
2024/01/23 11:23:30;;;;;;;45.83;19.57;;;7.20;86.60;;;;;;5052533;28;20179;-87
2024/01/23 11:26:01;;;;;;;60.07;19.90;;;7.30;86.70;;;;;;5051899;28;20684;-87
2024/01/23 11:28:28;;;;;;;41.97;18.37;;;7.30;86.70;;;;;;5052021;28;20632;-87
2024/01/23 11:31:22;;;;;;;56.17;20.70;;;7.30;86.60;;;;;;5052008;28;20225;-87
2024/01/23 11:33:49;;;;;;;51.53;20.33;;;7.50;86.60;;;;;;5051535;28;20169;-87
2024/01/23 11:36:24;;;;;;;56.00;21.20;;;7.50;86.00;;;;;;5052917;28;20713;-87
2024/01/23 11:38:52;;;;;;;48.23;21.27;;;7.50;85.90;;;;;;5052770;28;20175;-87
2024/01/23 11:41:24;;;;;;;49.37;19.63;;;7.50;86.30;;;;;;5052892;28;20521;-87
2024/01/23 11:44:25;;;;;;;60.07;30.90;;;7.60;85.50;;;;;;5051703;28;20658;-87
2024/01/23 11:46:51;;;;;;;61.60;29.53;;;7.70;85.80;;;;;;4998481;28;20263;-87
2024/01/23 11:49:17;;;;;;;51.00;27.30;;;7.60;85.60;;;;;;5047976;28;20188;-87
2024/01/23 11:51:43;;;;;;;60.07;29.20;;;7.60;85.80;;;;;;5055567;28;20167;-87
2024/01/23 11:54:10;;;;;;;57.20;29.17;;;7.60;85.90;;;;;;5057420;28;20172;-90
2024/01/23 11:56:37;;;;;;;43.17;28.10;;;7.60;86.00;;;;;;5055354;28;20202;-88
2024/01/23 11:59:02;;;;;;;51.90;32.20;;;7.60;85.70;;;;;;5055360;28;20179;-87
2024/01/23 12:01:30;;;;;;;52.77;28.20;;;7.50;85.70;;;;;;5055420;28;20180;-87
2024/01/23 12:03:56;;;;;;;33.30;25.37;;;7.50;85.80;;;;;;5055282;28;20180;-87
2024/01/23 12:06:23;;;;;;;60.70;30.17;;;7.50;86.20;;;;;;5055886;28;20215;-88
2024/01/23 12:08:48;;;;;;;36.80;26.20;;;7.60;85.40;;;;;;5056651;28;20172;-87
2024/01/23 12:11:15;;;;;;;53.83;28.37;;;7.60;85.80;;;;;;5055543;28;20184;-87
2024/01/23 12:13:49;;;;;;;55.23;30.17;;;7.60;85.80;;;;;;5055495;28;20167;-87
2024/01/23 12:16:15;;;;;;;65.67;32.33;;;7.60;85.30;;;;;;5055484;28;20718;-87
2024/01/23 12:18:41;;;;;;;57.83;30.53;;;7.60;85.40;;;;;;5056921;28;20241;-87
2024/01/23 12:21:08;;;;;;;55.63;29.83;;;7.60;85.10;;;;;;5055288;28;20639;-87
2024/01/23 12:23:34;;;;;;;52.00;30.53;;;7.50;85.60;;;;;;5055493;28;20322;-87
2024/01/23 12:26:00;;;;;;;47.23;27.67;;;7.50;86.20;;;;;;5054794;28;20294;-87
2024/01/23 12:28:29;;;;;;;63.00;27.43;;;7.30;86.60;;;;;;5056407;28;20168;-87
2024/01/23 12:30:55;;;;;;;51.93;27.93;;;7.30;86.60;;;;;;5055126;28;20538;-87
2024/01/23 12:33:21;;;;;;;46.40;26.70;;;7.30;86.70;;;;;;5055005;28;20709;-87